Time;durP1;ratioP1;P1;durP2;ratioP2;P2;SDS_P1;SDS_P2;PMS_P1;PMS_P2;Temp;Humidity;BMP_temperature;BMP_pressure;BME280_temperature;BME280_humidity;BME280_pressure;Samples;Min_cycle;Max_cycle;Signal;HPM_P1;HPM_P2
2022/03/30 00:01:07;;;;;;;16.73;10.83;;;;;;;10.78;91.19;-24118.03;5032326;28;20221;-71
2022/03/30 00:03:33;;;;;;;19.63;11.23;;;;;;;10.89;91.87;-24121.28;5032657;28;20168;-71
2022/03/30 00:05:58;;;;;;;22.07;10.87;;;;;;;10.62;93.26;-24113.69;5032411;28;20222;-71
2022/03/30 00:08:24;;;;;;;23.47;11.07;;;;;;;10.63;93.72;-24114.09;5032090;28;20179;-71
2022/03/30 00:10:50;;;;;;;19.60;10.80;;;;;;;10.16;93.07;-24100.97;5031975;28;20643;-71
2022/03/30 00:13:15;;;;;;;24.67;11.63;;;;;;;10.64;93.53;-24114.38;5031653;28;20630;-71
2022/03/30 00:15:41;;;;;;;26.00;11.43;;;;;;;9.95;95.23;-24095.03;5014102;28;20183;-71
2022/03/30 00:18:06;;;;;;;19.47;11.43;;;;;;;10.44;95.30;-24108.75;5032155;28;20194;-71
2022/03/30 00:20:32;;;;;;;22.63;11.17;;;;;;;10.38;96.50;-24107.03;5034011;28;20616;-71
2022/03/30 00:22:57;;;;;;;22.37;11.23;;;;;;;9.93;97.06;-24094.47;5032043;28;20178;-71
2022/03/30 00:25:23;;;;;;;17.13;10.67;;;;;;;9.84;97.65;-24091.94;5031995;28;20175;-71
2022/03/30 00:27:48;;;;;;;22.43;11.90;;;;;;;10.16;97.57;-24100.97;5031706;28;20202;-71
2022/03/30 00:30:16;;;;;;;23.20;11.20;;;;;;;9.60;98.21;-24085.28;5031973;28;20186;-71
2022/03/30 00:32:41;;;;;;;20.00;11.20;;;;;;;9.72;97.46;-24088.53;5031533;28;20230;-71
2022/03/30 00:35:08;;;;;;;20.07;12.03;;;;;;;9.41;96.89;-24079.91;5035352;28;20528;-71
2022/03/30 00:37:34;;;;;;;23.80;11.90;;;;;;;8.60;96.31;-24057.28;5030318;28;20606;-71
2022/03/30 00:40:00;;;;;;;25.80;12.80;;;;;;;9.68;95.82;-24087.41;5031612;28;20543;-71
2022/03/30 00:42:26;;;;;;;20.10;13.07;;;;;;;9.55;94.15;-24083.75;5031208;28;20217;-71
2022/03/30 00:44:53;;;;;;;28.30;13.33;;;;;;;9.11;93.36;-24071.44;5031716;28;20631;-71
2022/03/30 00:47:21;;;;;;;26.07;13.93;;;;;;;9.59;92.93;-24085.00;5031624;28;20693;-71
2022/03/30 00:49:47;;;;;;;29.50;13.33;;;;;;;9.16;91.98;-24072.84;5031611;28;20175;-71
2022/03/30 00:52:13;;;;;;;25.17;13.13;;;;;;;9.58;95.46;-24084.72;5032017;28;20175;-71
2022/03/30 00:54:42;;;;;;;23.67;13.60;;;;;;;9.09;97.22;-24071.03;5031306;28;20642;-71
2022/03/30 00:57:09;;;;;;;29.47;13.67;;;;;;;9.10;97.28;-24071.31;5032510;28;20191;-71
2022/03/30 00:59:35;;;;;;;23.27;13.07;;;;;;;9.24;98.31;-24075.13;5031205;28;20193;-71
2022/03/30 01:02:00;;;;;;;23.63;12.93;;;;;;;8.88;98.88;-24065.22;5031296;28;20203;-71
2022/03/30 01:04:26;;;;;;;25.37;13.43;;;;;;;8.70;100.00;-24060.13;5031469;28;20258;-71
2022/03/30 01:06:52;;;;;;;25.07;13.10;;;;;;;8.71;100.00;-24060.25;5031321;28;20310;-71
2022/03/30 01:09:18;;;;;;;25.03;13.37;;;;;;;9.00;100.00;-24068.34;5031414;28;20254;-71
2022/03/30 01:11:43;;;;;;;25.70;13.07;;;;;;;9.02;100.00;-24068.91;5013520;28;20578;-71
2022/03/30 01:14:12;;;;;;;25.57;13.80;;;;;;;8.48;100.00;-24053.91;5031190;28;20171;-71
2022/03/30 01:16:39;;;;;;;18.00;12.70;;;;;;;8.53;100.00;-24055.31;5031134;28;20182;-71
2022/03/30 01:19:06;;;;;;;25.30;13.73;;;;;;;8.94;100.00;-24066.63;5030820;28;20167;-71
2022/03/30 01:21:32;;;;;;;20.43;13.00;;;;;;;8.77;100.00;-24061.97;5031132;28;20252;-71
2022/03/30 01:23:57;;;;;;;19.90;12.43;;;;;;;8.38;100.00;-24051.06;5032667;28;20172;-71
2022/03/30 01:26:25;;;;;;;26.80;13.10;;;;;;;8.49;100.00;-24054.19;5035487;28;20232;-71
2022/03/30 01:28:51;;;;;;;24.27;12.30;;;;;;;8.76;100.00;-24061.81;5036971;28;20183;-71
2022/03/30 01:34:01;;;;;;;21.77;13.47;;;;;;;8.46;100.00;-24053.19;5037797;28;20279;-71
2022/03/30 01:36:26;;;;;;;21.60;13.93;;;;;;;8.26;100.00;-24047.66;5035349;28;20267;-71
2022/03/30 01:38:52;;;;;;;25.40;14.00;;;;;;;8.66;100.00;-24058.84;5022296;28;20217;-72
2022/03/30 01:41:17;;;;;;;24.20;13.93;;;;;;;8.70;100.00;-24059.97;5035209;28;20214;-72
2022/03/30 01:43:43;;;;;;;23.80;14.47;;;;;;;8.15;100.00;-24044.69;5032714;28;20715;-71
2022/03/30 01:46:08;;;;;;;28.47;13.73;;;;;;;8.31;100.00;-24049.09;5034687;28;20188;-71
2022/03/30 01:48:34;;;;;;;26.40;14.70;;;;;;;8.81;100.00;-24063.25;5034170;28;20266;-71
2022/03/30 01:50:59;;;;;;;22.40;13.80;;;;;;;8.84;100.00;-24064.09;5034378;28;20221;-71
2022/03/30 01:53:25;;;;;;;23.83;14.33;;;;;;;8.86;100.00;-24064.66;5037503;28;20182;-71
2022/03/30 01:55:51;;;;;;;25.67;14.07;;;;;;;8.68;100.00;-24059.56;5037378;28;20556;-71
2022/03/30 01:58:17;;;;;;;24.13;13.57;;;;;;;8.30;100.00;-24048.81;5022632;28;20183;-71
2022/03/30 02:00:43;;;;;;;28.90;14.47;;;;;;;8.29;100.00;-24048.50;5034414;28;20723;-71
2022/03/30 02:03:09;;;;;;;24.90;14.60;;;;;;;8.59;100.00;-24057.00;5034156;28;20223;-71
2022/03/30 02:05:34;;;;;;;30.50;14.77;;;;;;;8.74;100.00;-24061.13;5036155;28;20371;-71
2022/03/30 02:08:00;;;;;;;25.27;14.53;;;;;;;8.43;100.00;-24052.63;5037312;28;20183;-71
2022/03/30 02:10:26;;;;;;;26.63;14.17;;;;;;;8.55;100.00;-24055.88;5028216;28;20183;-72
2022/03/30 02:12:51;;;;;;;32.20;14.93;;;;;;;8.06;100.00;-24042.00;5024523;28;20661;-72
2022/03/30 02:15:17;;;;;;;28.77;14.13;;;;;;;8.24;100.00;-24047.09;5015438;28;20213;-73
2022/03/30 02:17:42;;;;;;;28.13;14.37;;;;;;;8.40;100.00;-24051.63;5016340;28;20191;-71
2022/03/30 02:20:09;;;;;;;26.97;14.90;;;;;;;7.96;100.00;-24039.44;5033909;28;20175;-71
2022/03/30 02:22:34;;;;;;;25.37;14.70;;;;;;;8.30;100.00;-24048.94;5034485;28;20513;-71
2022/03/30 02:25:00;;;;;;;30.07;15.10;;;;;;;8.45;100.00;-24052.91;5034273;28;20668;-71
2022/03/30 02:27:26;;;;;;;28.63;14.73;;;;;;;8.37;100.00;-24050.78;5034332;28;20258;-71
2022/03/30 02:29:54;;;;;;;26.03;14.67;;;;;;;8.40;100.00;-24051.63;5034140;28;20175;-71
2022/03/30 02:32:20;;;;;;;29.27;14.60;;;;;;;8.18;100.00;-24045.41;5034112;28;20686;-71
2022/03/30 02:34:45;;;;;;;25.60;14.67;;;;;;;8.32;100.00;-24049.38;5033589;28;20311;-71
2022/03/30 02:37:12;;;;;;;24.67;14.47;;;;;;;7.62;100.00;-24029.81;5033639;28;20179;-71
2022/03/30 02:39:38;;;;;;;22.80;13.73;;;;;;;7.49;100.00;-24026.13;5034254;28;20178;-72
2022/03/30 02:42:07;;;;;;;28.43;14.17;;;;;;;7.82;100.00;-24035.47;5033865;28;20195;-71
2022/03/30 02:44:33;;;;;;;23.97;14.13;;;;;;;7.53;100.00;-24027.28;5035986;28;20176;-71
2022/03/30 02:47:00;;;;;;;25.30;13.63;;;;;;;7.18;100.00;-24017.34;5033445;28;20266;-70
2022/03/30 02:49:27;;;;;;;23.43;13.90;;;;;;;7.51;100.00;-24026.84;5033620;28;20175;-70
2022/03/30 02:51:52;;;;;;;27.27;14.90;;;;;;;7.62;100.00;-24029.81;5033503;28;20234;-70
2022/03/30 02:54:18;;;;;;;25.57;14.53;;;;;;;7.45;100.00;-24025.00;5033291;28;20176;-70
2022/03/30 02:56:43;;;;;;;26.40;14.13;;;;;;;7.55;100.00;-24027.84;5033698;28;20179;-71
2022/03/30 02:59:09;;;;;;;30.70;14.87;;;;;;;7.09;100.00;-24014.94;5033825;28;20235;-71
2022/03/30 03:01:34;;;;;;;25.57;14.43;;;;;;;7.48;100.00;-24025.84;5033366;28;20198;-71
2022/03/30 03:04:00;;;;;;;22.77;13.77;;;;;;;7.58;100.00;-24028.69;5033420;28;20207;-71
2022/03/30 03:06:25;;;;;;;25.20;15.93;;;;;;;6.98;100.00;-24011.94;5033258;28;20313;-72
2022/03/30 03:08:51;;;;;;;32.53;15.37;;;;;;;7.16;100.00;-24016.91;5033521;28;20159;-71
2022/03/30 03:11:17;;;;;;;29.47;16.20;;;;;;;6.98;100.00;-24011.81;5032583;28;20256;-71
2022/03/30 03:13:43;;;;;;;29.10;15.23;;;;;;;7.27;100.00;-24020.03;5021440;28;20187;-71
2022/03/30 03:16:08;;;;;;;28.63;15.10;;;;;;;7.15;100.00;-24016.63;5015590;28;20184;-71
2022/03/30 03:18:35;;;;;;;27.10;15.73;;;;;;;6.95;100.00;-24011.09;5033367;28;20547;-71
2022/03/30 03:21:00;;;;;;;23.83;15.27;;;;;;;6.99;100.00;-24012.09;5033194;28;20254;-72
2022/03/30 03:23:26;;;;;;;33.57;14.93;;;;;;;7.07;100.00;-24014.50;5035378;28;20645;-72
2022/03/30 03:25:53;;;;;;;28.43;15.47;;;;;;;7.04;100.00;-24013.66;5034087;28;20552;-72
2022/03/30 03:28:19;;;;;;;27.20;14.93;;;;;;;7.34;100.00;-24021.88;5035859;28;20511;-72
2022/03/30 03:30:44;;;;;;;27.37;15.33;;;;;;;7.03;100.00;-24013.22;5033158;28;20175;-72
2022/03/30 03:33:10;;;;;;;31.37;16.90;;;;;;;6.98;100.00;-24011.94;5029854;28;20262;-72
2022/03/30 03:35:36;;;;;;;30.60;16.83;;;;;;;7.08;100.00;-24014.78;5029254;28;20220;-72
2022/03/30 03:38:03;;;;;;;36.80;16.43;;;;;;;6.52;100.00;-23999.03;5029909;28;20190;-72
2022/03/30 03:40:32;;;;;;;30.10;16.23;;;;;;;6.80;100.00;-24006.84;5032176;28;20179;-72
2022/03/30 03:43:02;;;;;;;30.20;16.00;;;;;;;6.77;100.00;-24006.00;5012300;28;20661;-72
2022/03/30 03:45:27;;;;;;;28.80;15.73;;;;;;;6.89;100.00;-24009.41;5033232;28;20179;-72
2022/03/30 03:47:53;;;;;;;32.90;15.90;;;;;;;6.49;100.00;-23998.19;5033673;28;20700;-72
2022/03/30 03:50:19;;;;;;;29.83;16.60;;;;;;;6.34;100.00;-23993.94;5035114;28;20172;-72
2022/03/30 03:52:45;;;;;;;33.63;15.93;;;;;;;6.31;100.00;-23992.94;5034527;28;20611;-72
2022/03/30 03:55:11;;;;;;;27.73;17.20;;;;;;;6.68;100.00;-24003.44;5032942;28;20210;-72
2022/03/30 03:57:40;;;;;;;29.10;17.47;;;;;;;6.73;100.00;-24004.72;5031113;28;20190;-71
2022/03/30 04:00:08;;;;;;;31.50;17.50;;;;;;;6.71;100.00;-24004.28;5032948;28;20384;-72
2022/03/30 04:02:33;;;;;;;36.87;16.50;;;;;;;6.62;100.00;-24001.75;5033760;28;20225;-75
2022/03/30 04:04:59;;;;;;;31.53;16.27;;;;;;;6.53;100.00;-23999.31;5032805;28;20553;-72
2022/03/30 04:07:24;;;;;;;31.83;17.03;;;;;;;6.03;100.00;-23985.13;5035820;28;20363;-71
2022/03/30 04:09:50;;;;;;;27.43;16.87;;;;;;;6.62;100.00;-24001.88;5034087;28;20266;-71
2022/03/30 04:12:15;;;;;;;32.67;17.07;;;;;;;6.67;100.00;-24003.16;5034064;28;20337;-72
2022/03/30 04:14:41;;;;;;;28.87;17.40;;;;;;;6.32;100.00;-23993.38;5034171;28;20665;-72
2022/03/30 04:17:06;;;;;;;30.93;18.73;;;;;;;5.98;100.00;-23983.84;5032287;28;20610;-72
2022/03/30 04:19:32;;;;;;;36.00;17.50;;;;;;;6.91;100.00;-24009.81;5033927;28;20191;-72
2022/03/30 04:21:57;;;;;;;36.27;18.00;;;;;;;6.61;100.00;-24001.59;5033696;28;20707;-72
2022/03/30 04:24:22;;;;;;;34.70;18.73;;;;;;;6.63;100.00;-24002.16;5035240;28;20179;-72
2022/03/30 04:26:48;;;;;;;32.57;17.97;;;;;;;6.76;100.00;-24005.72;5033375;28;20598;-72
2022/03/30 04:29:13;;;;;;;31.73;18.57;;;;;;;6.80;100.00;-24006.84;5035922;28;21092;-72
2022/03/30 04:31:39;;;;;;;34.30;18.67;;;;;;;6.99;100.00;-24012.25;5013627;28;20190;-71
2022/03/30 04:34:04;;;;;;;49.03;18.63;;;;;;;7.36;100.00;-24022.59;5035397;28;20233;-71
2022/03/30 04:36:30;;;;;;;31.63;18.13;;;;;;;7.10;100.00;-24015.34;5035767;28;20176;-72
2022/03/30 04:38:55;;;;;;;35.97;17.97;;;;;;;7.49;100.00;-24026.13;5020276;28;20657;-72
2022/03/30 04:41:22;;;;;;;36.87;18.33;;;;;;;7.84;100.00;-24036.06;5036655;28;20253;-70
2022/03/30 04:43:48;;;;;;;41.13;19.70;;;;;;;7.45;100.00;-24025.13;5034307;28;20183;-72
2022/03/30 04:46:13;;;;;;;35.67;18.03;;;;;;;7.84;100.00;-24036.06;5033539;28;20198;-73
2022/03/30 04:48:39;;;;;;;39.20;19.60;;;;;;;7.57;100.00;-24028.25;5033808;28;20187;-72
2022/03/30 04:51:05;;;;;;;39.87;18.43;;;;;;;8.13;100.00;-24044.13;5032836;28;20189;-73
2022/03/30 04:53:31;;;;;;;45.67;19.63;;;;;;;8.25;100.00;-24047.38;5035484;28;20186;-73
2022/03/30 04:55:56;;;;;;;39.70;19.93;;;;;;;8.36;100.00;-24050.50;5037714;28;20737;-71
2022/03/30 04:58:22;;;;;;;44.83;21.97;;;;;;;8.51;100.00;-24054.75;5034238;28;20184;-72
2022/03/30 05:00:48;;;;;;;44.57;22.43;;;;;;;8.43;100.00;-24052.47;5016677;28;20178;-72
2022/03/30 05:03:13;;;;;;;37.53;21.90;;;;;;;8.48;100.00;-24053.75;5034143;28;20285;-72
2022/03/30 05:05:39;;;;;;;45.83;22.30;;;;;;;8.14;100.00;-24044.28;5030673;28;20734;-72
2022/03/30 05:08:05;;;;;;;39.70;21.47;;;;;;;8.79;100.00;-24062.66;5035662;28;20190;-72
2022/03/30 05:10:31;;;;;;;41.40;21.67;;;;;;;8.58;100.00;-24056.72;5031569;28;20171;-71
2022/03/30 05:12:58;;;;;;;52.93;21.70;;;;;;;9.30;100.00;-24076.94;5029600;28;20206;-72
2022/03/30 05:15:24;;;;;;;40.47;20.10;;;;;;;9.28;98.26;-24076.38;5032074;28;20190;-71
2022/03/30 05:17:49;;;;;;;42.63;21.57;;;;;;;9.48;97.79;-24081.91;5032944;28;20205;-71
2022/03/30 05:20:17;;;;;;;40.93;19.80;;;;;;;9.27;96.38;-24076.09;5030296;28;20569;-71
2022/03/30 05:22:43;;;;;;;38.97;20.83;;;;;;;9.79;98.33;-24090.53;5036293;28;20211;-71
2022/03/30 05:25:10;;;;;;;40.13;20.90;;;;;;;9.70;99.04;-24088.13;5033219;28;20183;-71
2022/03/30 05:27:38;;;;;;;42.13;19.83;;;;;;;9.81;96.82;-24090.94;5038981;28;20183;-71
2022/03/30 05:30:04;;;;;;;37.77;19.17;;;;;;;10.34;94.17;-24105.91;5028990;28;20176;-71
2022/03/30 05:32:30;;;;;;;37.37;21.00;;;;;;;10.49;93.58;-24110.16;5028490;28;20661;-70
2022/03/30 05:34:56;;;;;;;33.37;19.03;;;;;;;10.62;92.15;-24113.69;5036267;28;20179;-71
2022/03/30 05:37:23;;;;;;;33.87;18.87;;;;;;;10.77;90.69;-24117.91;5017199;28;20183;-71
2022/03/30 05:39:49;;;;;;;33.23;18.60;;;;;;;10.80;86.85;-24118.63;5036558;28;21098;-71
2022/03/30 05:42:14;;;;;;;32.67;17.90;;;;;;;10.65;87.42;-24114.53;5017432;28;20340;-72
2022/03/30 05:44:41;;;;;;;28.77;17.73;;;;;;;10.97;84.86;-24123.53;5037170;28;20272;-71
2022/03/30 05:47:07;;;;;;;32.97;17.80;;;;;;;10.86;82.13;-24120.31;5030350;28;20191;-69
2022/03/30 05:49:34;;;;;;;33.63;18.00;;;;;;;10.62;87.35;-24113.69;5029834;28;20552;-71
2022/03/30 05:52:00;;;;;;;34.20;18.40;;;;;;;10.78;85.92;-24118.03;5033811;28;20191;-71
2022/03/30 05:54:26;;;;;;;34.20;17.63;;;;;;;10.95;85.29;-24122.84;5033093;28;20186;-71
2022/03/30 05:57:00;;;;;;;34.23;17.97;;;;;;;10.65;87.77;-24114.53;5025615;28;20187;-71
2022/03/30 05:59:26;;;;;;;38.17;17.57;;;;;;;10.89;83.35;-24121.28;5032486;28;20183;-71
2022/03/30 06:01:52;;;;;;;31.27;16.90;;;;;;;11.15;82.20;-24128.47;5030180;28;20237;-71
2022/03/30 06:04:18;;;;;;;32.80;16.20;;;;;;;11.17;82.21;-24129.03;5030177;28;20175;-71
2022/03/30 06:06:43;;;;;;;40.07;20.37;;;;;;;10.93;83.68;-24122.28;5029963;28;20223;-70
2022/03/30 06:09:08;;;;;;;43.67;21.35;;;;;;;11.42;82.27;-24136.09;5033608;28;20183;-71
2022/03/30 06:11:34;;;;;;;40.10;20.50;;;;;;;11.58;82.24;-24140.47;5025056;28;20263;-71
2022/03/30 06:13:59;;;;;;;38.63;19.98;;;;;;;11.08;82.60;-24126.66;5026052;28;20258;-71
2022/03/30 06:16:27;;;;;;;38.50;19.10;;;;;;;11.56;81.89;-24139.91;5034182;28;20182;-70
2022/03/30 06:18:54;;;;;;;36.60;18.63;;;;;;;11.07;84.03;-24126.22;5033900;28;20258;-70
2022/03/30 06:21:20;;;;;;;34.30;19.40;;;;;;;11.24;84.56;-24131.03;5034043;28;20278;-70
2022/03/30 06:23:45;;;;;;;37.50;19.53;;;;;;;11.12;84.50;-24127.50;5033715;28;20263;-69
2022/03/30 06:26:11;;;;;;;32.42;19.30;;;;;;;10.87;84.94;-24120.72;5033896;28;20627;-71
2022/03/30 06:28:36;;;;;;;33.10;19.55;;;;;;;12.21;80.72;-24157.91;5034003;28;20205;-71
2022/03/30 06:31:02;;;;;;;38.72;20.23;;;;;;;12.27;76.55;-24159.75;5033700;28;20175;-71
2022/03/30 06:33:27;;;;;;;45.55;21.83;;;;;;;12.72;74.23;-24172.28;5033144;28;20753;-71
2022/03/30 06:35:53;;;;;;;35.22;19.67;;;;;;;12.40;76.50;-24163.28;5033567;28;20174;-70
2022/03/30 06:38:19;;;;;;;36.08;20.20;;;;;;;12.83;75.85;-24175.38;5032996;28;20254;-70
2022/03/30 06:40:46;;;;;;;38.70;20.80;;;;;;;12.85;75.40;-24175.78;5033510;28;20635;-70
2022/03/30 06:43:12;;;;;;;37.85;21.35;;;;;;;13.26;73.78;-24187.19;5033300;28;20171;-71
2022/03/30 06:45:38;;;;;;;36.85;20.23;;;;;;;13.20;72.31;-24185.63;5033140;28;20172;-71
2022/03/30 06:48:05;;;;;;;42.03;20.70;;;;;;;13.29;71.52;-24188.03;5033577;28;20206;-71
2022/03/30 06:50:32;;;;;;;38.63;20.73;;;;;;;13.55;69.96;-24195.19;5032880;28;20168;-71
2022/03/30 06:53:01;;;;;;;47.13;23.77;;;;;;;13.73;70.56;-24200.25;5036169;28;20263;-71
2022/03/30 06:55:26;;;;;;;59.83;25.38;;;;;;;13.78;69.47;-24201.63;5020630;28;20540;-71
2022/03/30 06:57:52;;;;;;;49.60;25.48;;;;;;;13.64;70.63;-24197.84;5014244;28;20705;-73
2022/03/30 07:00:18;;;;;;;55.90;26.05;;;;;;;13.58;70.07;-24196.03;5032741;28;20265;-70
2022/03/30 07:02:44;;;;;;;45.92;25.60;;;;;;;13.94;69.60;-24206.00;5032861;28;20365;-71
2022/03/30 07:05:10;;;;;;;48.22;23.80;;;;;;;14.42;66.05;-24219.31;5032950;28;20600;-70
2022/03/30 07:10:21;;;;;;;47.90;23.42;;;;;;;14.40;66.72;-24218.91;5032780;28;20225;-71
2022/03/30 07:12:48;;;;;;;49.00;22.40;;;;;;;14.66;64.53;-24226.06;5032525;28;20167;-71
2022/03/30 07:15:15;;;;;;;47.22;23.65;;;;;;;14.13;64.52;-24211.47;5033016;28;20183;-71
2022/03/30 07:17:48;;;;;;;53.65;23.13;;;;;;;14.63;65.12;-24225.22;5015220;28;20190;-70
2022/03/30 07:20:15;;;;;;;46.78;22.27;;;;;;;14.77;63.20;-24229.13;5033160;28;20325;-71
2022/03/30 07:22:41;;;;;;;36.78;21.42;;;;;;;14.61;62.90;-24224.50;5031924;28;20211;-72
2022/03/30 07:25:08;;;;;;;45.15;20.95;;;;;;;14.90;61.07;-24232.78;5032399;28;20183;-72
2022/03/30 07:27:34;;;;;;;44.20;20.90;;;;;;;15.27;59.47;-24242.88;5032715;28;20174;-72
2022/03/30 07:29:59;;;;;;;42.55;21.92;;;;;;;14.97;60.27;-24234.59;5032580;28;20168;-72
2022/03/30 07:32:24;;;;;;;40.58;19.85;;;;;;;15.46;60.26;-24248.19;5032063;28;20171;-72
2022/03/30 07:34:53;;;;;;;49.33;20.90;;;;;;;15.77;58.55;-24256.72;5030795;28;20201;-72
2022/03/30 07:37:18;;;;;;;48.17;20.75;;;;;;;15.64;57.16;-24253.22;5037806;28;20178;-72
2022/03/30 07:39:44;;;;;;;40.03;18.83;;;;;;;15.90;56.45;-24260.50;5036049;28;20187;-72
2022/03/30 07:42:09;;;;;;;33.42;18.55;;;;;;;16.14;56.16;-24267.09;5034089;28;20210;-72
2022/03/30 07:44:35;;;;;;;37.60;18.35;;;;;;;17.00;54.74;-24290.72;5031854;28;20182;-71
2022/03/30 07:47:01;;;;;;;30.77;17.45;;;;;;;16.89;53.07;-24287.63;5036335;28;20186;-71
2022/03/30 07:49:27;;;;;;;34.75;15.77;;;;;;;17.46;57.51;-24303.41;5033443;28;20175;-67
2022/03/30 07:51:52;;;;;;;33.45;16.95;;;;;;;17.53;55.50;-24305.50;5031581;28;20248;-67
2022/03/30 07:54:18;;;;;;;31.40;17.08;;;;;;;17.19;55.52;-24296.00;5031807;28;20600;-67
2022/03/30 07:56:43;;;;;;;34.88;18.50;;;;;;;17.52;52.58;-24305.09;5035169;28;20182;-66
2022/03/30 07:59:08;;;;;;;37.30;17.60;;;;;;;18.17;50.88;-24322.94;5033364;28;20210;-66
2022/03/30 08:01:34;;;;;;;37.97;18.15;;;;;;;18.09;48.76;-24320.97;5037800;28;20281;-68
2022/03/30 08:03:59;;;;;;;29.73;18.05;;;;;;;17.98;49.90;-24317.91;5019211;28;20179;-66
2022/03/30 08:06:26;;;;;;;38.40;18.90;;;;;;;17.56;51.95;-24306.19;5033469;28;20215;-66
2022/03/30 08:08:52;;;;;;;37.75;18.10;;;;;;;17.93;53.44;-24316.38;5032495;28;20287;-67
2022/03/30 08:11:18;;;;;;;31.00;16.92;;;;;;;17.90;53.16;-24315.69;5036474;28;20191;-67
2022/03/30 08:13:43;;;;;;;36.28;17.75;;;;;;;17.92;50.62;-24316.25;5015932;28;20654;-67
2022/03/30 08:16:08;;;;;;;35.50;17.27;;;;;;;18.14;51.00;-24322.09;5039598;28;20293;-66
2022/03/30 08:18:34;;;;;;;35.38;17.48;;;;;;;18.36;48.40;-24328.22;5036347;28;20563;-66
2022/03/30 08:23:43;;;;;;;41.83;16.92;;;;;;;18.13;50.41;-24321.97;5017171;28;20210;-65
2022/03/30 08:26:08;;;;;;;39.92;17.45;;;;;;;18.25;49.36;-24325.31;5029023;28;20670;-65
2022/03/30 08:28:34;;;;;;;33.33;17.45;;;;;;;17.91;50.23;-24315.81;5031210;28;20183;-66
2022/03/30 08:30:59;;;;;;;42.42;17.85;;;;;;;17.65;50.55;-24308.72;5036044;28;20187;-65
2022/03/30 08:33:27;;;;;;;34.78;17.10;;;;;;;17.88;49.77;-24315.13;5033078;28;20179;-65
2022/03/30 08:35:56;;;;;;;29.02;16.40;;;;;;;17.83;49.94;-24313.59;5035548;28;20179;-65
2022/03/30 08:38:22;;;;;;;32.15;16.85;;;;;;;18.39;49.17;-24329.06;5038399;28;20187;-65
2022/03/30 08:40:48;;;;;;;29.95;16.33;;;;;;;18.20;48.61;-24323.91;5036214;28;20190;-67
2022/03/30 08:43:14;;;;;;;34.70;16.00;;;;;;;18.77;48.17;-24339.66;5033140;28;20266;-65
2022/03/30 08:45:40;;;;;;;36.90;17.25;;;;;;;19.04;47.56;-24347.03;5034408;28;20187;-66
2022/03/30 08:48:06;;;;;;;33.83;16.30;;;;;;;18.95;46.99;-24344.53;5031736;28;20222;-66
2022/03/30 08:50:32;;;;;;;32.22;16.13;;;;;;;18.88;46.20;-24342.72;5034232;28;20191;-66
2022/03/30 08:53:04;;;;;;;31.55;16.15;;;;;;;18.37;46.82;-24328.66;5034112;28;20175;-66
2022/03/30 08:55:31;;;;;;;35.03;16.73;;;;;;;18.60;46.85;-24334.78;5032998;28;20195;-65
2022/03/30 08:57:56;;;;;;;31.88;16.38;;;;;;;19.14;45.80;-24349.81;5031421;28;20265;-66
2022/03/30 09:00:22;;;;;;;32.47;16.20;;;;;;;18.74;45.78;-24338.81;5038817;28;20698;-67
2022/03/30 09:02:59;;;;;;;30.73;15.80;;;;;;;19.17;45.97;-24350.66;5035836;28;20210;-66
2022/03/30 09:05:27;;;;;;;29.88;15.70;;;;;;;18.86;46.79;-24342.16;5033436;28;20384;-66
2022/03/30 09:08:06;;;;;;;30.55;15.48;;;;;;;18.71;47.36;-24337.84;5035585;28;21652;-66
2022/03/30 09:10:31;;;;;;;25.52;15.65;;;;;;;19.09;45.41;-24348.28;5035191;28;20270;-67
2022/03/30 09:12:57;;;;;;;31.00;15.00;;;;;;;19.56;44.91;-24361.38;5018522;28;20295;-67
2022/03/30 09:15:24;;;;;;;25.35;14.63;;;;;;;19.11;45.94;-24348.97;5037243;28;20617;-67
2022/03/30 09:17:55;;;;;;;25.90;13.93;;;;;;;19.52;45.62;-24360.25;5030587;28;20183;-67
2022/03/30 09:20:21;;;;;;;28.70;14.40;;;;;;;19.22;45.63;-24352.03;5035924;28;20205;-67
2022/03/30 09:22:48;;;;;;;35.60;15.40;;;;;;;18.94;47.03;-24344.38;5039092;28;20205;-66
2022/03/30 09:25:15;;;;;;;25.48;14.07;;;;;;;19.25;44.99;-24352.88;5034852;28;21497;-65
2022/03/30 09:27:42;;;;;;;25.73;14.00;;;;;;;19.29;45.99;-24354.00;5035296;28;20301;-65
2022/03/30 09:30:10;;;;;;;30.80;14.55;;;;;;;19.51;45.77;-24359.97;5034921;28;20634;-65
2022/03/30 09:32:37;;;;;;;23.35;14.02;;;;;;;19.25;45.23;-24352.75;5034848;28;20216;-65
2022/03/30 09:35:02;;;;;;;29.02;14.32;;;;;;;19.75;46.51;-24366.50;5034794;28;20245;-66
2022/03/30 09:37:27;;;;;;;30.77;14.50;;;;;;;19.45;45.50;-24358.31;5021012;28;20605;-66
2022/03/30 09:39:54;;;;;;;29.40;14.88;;;;;;;19.77;46.07;-24367.06;5034610;28;20183;-66
2022/03/30 09:42:20;;;;;;;22.38;13.35;;;;;;;20.44;43.63;-24385.41;5034597;28;20533;-66
2022/03/30 09:44:52;;;;;;;21.60;12.82;;;;;;;20.82;42.36;-24395.94;5015598;28;20195;-67
2022/03/30 09:47:20;;;;;;;23.10;12.85;;;;;;;20.97;42.16;-24400.13;5029457;28;20191;-66
2022/03/30 09:49:52;;;;;;;26.38;12.90;;;;;;;20.49;43.09;-24386.94;5018444;28;20191;-66
2022/03/30 09:52:22;;;;;;;23.85;13.15;;;;;;;20.33;43.82;-24382.34;5034814;28;20226;-66
2022/03/30 09:54:53;;;;;;;23.83;12.77;;;;;;;20.32;44.47;-24382.22;5033724;28;20290;-66
2022/03/30 09:57:41;;;;;;;22.48;13.10;;;;;;;20.43;43.84;-24385.28;5039191;28;20211;-66
2022/03/30 10:00:10;;;;;;;21.02;13.13;;;;;;;20.54;42.95;-24388.19;5033978;28;20206;-66
2022/03/30 10:02:39;;;;;;;28.15;12.25;;;;;;;20.40;43.32;-24384.28;5040390;28;20217;-66
2022/03/30 10:05:06;;;;;;;26.50;12.50;;;;;;;20.92;42.24;-24398.72;5030411;28;20175;-66
2022/03/30 10:07:32;;;;;;;19.63;12.98;;;;;;;20.88;40.01;-24397.63;5040692;28;20190;-66
2022/03/30 10:09:59;;;;;;;25.00;12.82;;;;;;;20.77;40.05;-24394.56;5032761;28;20183;-66
2022/03/30 10:12:26;;;;;;;23.20;13.02;;;;;;;21.06;40.80;-24402.59;5041699;28;20202;-67
2022/03/30 10:14:54;;;;;;;21.15;12.98;;;;;;;20.66;40.71;-24391.66;5039144;28;20194;-67
2022/03/30 10:17:22;;;;;;;24.58;12.90;;;;;;;20.58;40.77;-24389.28;5018196;28;20542;-66
2022/03/30 10:19:49;;;;;;;19.20;11.95;;;;;;;20.51;41.66;-24387.34;5036745;28;20631;-67
2022/03/30 10:22:52;;;;;;;22.40;12.93;;;;;;;20.74;40.32;-24393.72;5041662;28;20203;-67
2022/03/30 10:25:32;;;;;;;23.42;12.23;;;;;;;20.80;40.26;-24395.41;5035564;28;20661;-67
2022/03/30 10:28:14;;;;;;;19.05;12.45;;;;;;;20.69;39.08;-24392.47;5037809;28;20195;-67
2022/03/30 10:30:43;;;;;;;30.10;12.55;;;;;;;20.37;39.59;-24383.59;5038585;28;20187;-66
2022/03/30 10:33:10;;;;;;;26.83;12.88;;;;;;;20.84;38.99;-24396.38;5034696;28;20178;-66
2022/03/30 10:35:41;;;;;;;22.10;12.52;;;;;;;20.96;39.60;-24399.84;5041370;28;20183;-67
2022/03/30 10:38:08;;;;;;;33.13;12.60;;;;;;;20.77;37.46;-24394.56;5037847;28;20187;-66
2022/03/30 10:40:34;;;;;;;24.80;11.32;;;;;;;20.78;37.88;-24394.84;5044754;28;20182;-67
2022/03/30 10:43:02;;;;;;;24.02;12.23;;;;;;;20.68;37.45;-24392.19;5013393;28;20600;-67
2022/03/30 10:45:28;;;;;;;20.20;13.02;;;;;;;20.95;36.87;-24399.41;5036291;28;20605;-67
2022/03/30 10:48:17;;;;;;;24.85;12.65;;;;;;;20.96;37.79;-24399.84;5032180;28;22597;-68
2022/03/30 10:50:54;;;;;;;24.27;12.68;;;;;;;20.49;38.77;-24386.94;5034320;28;20187;-67
2022/03/30 10:53:31;;;;;;;20.35;12.70;;;;;;;21.06;38.04;-24402.59;5035997;28;20300;-67
2022/03/30 10:56:09;;;;;;;25.63;13.60;;;;;;;21.38;38.18;-24411.22;5037197;28;20218;-68
2022/03/30 10:58:35;;;;;;;23.77;11.82;;;;;;;21.22;37.69;-24406.91;5034804;28;20178;-67
2022/03/30 11:01:25;;;;;;;24.38;12.65;;;;;;;21.18;37.44;-24405.81;5036274;28;20180;-67
2022/03/30 11:03:57;;;;;;;22.10;12.88;;;;;;;20.75;36.73;-24394.00;5035494;28;20190;-67
2022/03/30 11:06:24;;;;;;;25.98;12.23;;;;;;;21.10;35.68;-24403.72;5034780;28;20261;-68
2022/03/30 11:08:51;;;;;;;24.27;12.48;;;;;;;21.65;35.99;-24418.56;5032775;28;20170;-67
2022/03/30 11:11:20;;;;;;;24.63;12.13;;;;;;;21.58;36.62;-24416.75;5033682;28;20587;-67
2022/03/30 11:13:46;;;;;;;21.50;12.45;;;;;;;21.26;36.69;-24407.88;5034484;28;20183;-66
2022/03/30 11:16:11;;;;;;;25.75;12.98;;;;;;;21.73;35.76;-24420.91;5032699;28;20179;-67